createdAt,value
2023-02-05T00:00:50.034Z,97770.45
2023-02-05T00:03:39.414Z,97773.52
2023-02-05T00:06:07.812Z,97773.48
2023-02-05T00:08:35.990Z,97780.77
2023-02-05T00:11:09.517Z,97786.53
2023-02-05T00:13:41.154Z,97789.94
2023-02-05T00:16:18.710Z,97792.82
2023-02-05T00:18:47.021Z,97798.41
2023-02-05T00:21:16.038Z,97806.21
2023-02-05T00:23:44.394Z,97807.38
2023-02-05T00:26:15.880Z,97808.23
2023-02-05T00:28:45.259Z,97810.10
2023-02-05T00:31:21.434Z,97807.73
2023-02-05T00:33:50.889Z,97809.79
2023-02-05T00:36:20.531Z,97815.95
2023-02-05T00:38:49.334Z,97820.89
2023-02-05T00:41:18.346Z,97824.27
2023-02-05T00:43:46.714Z,97827.86
2023-02-05T00:46:15.337Z,97826.11
2023-02-05T00:48:43.912Z,97827.83
2023-02-05T00:51:12.277Z,97830.48
2023-02-05T00:53:40.541Z,97828.41
2023-02-05T00:56:08.747Z,97829.23
2023-02-05T00:58:37.520Z,97829.40
2023-02-05T01:01:06.083Z,97826.34
2023-02-05T01:03:34.116Z,97829.41
2023-02-05T01:06:03.483Z,97818.52
2023-02-05T01:08:31.791Z,97821.23
2023-02-05T01:11:00.060Z,97821.23
2023-02-05T01:13:28.283Z,97825.17
2023-02-05T01:15:56.433Z,97829.27
2023-02-05T01:18:24.801Z,97832.73
2023-02-05T01:20:52.766Z,97837.19
2023-02-05T01:23:20.826Z,97839.11
2023-02-05T01:25:48.929Z,97838.11
2023-02-05T01:28:17.164Z,97836.61
2023-02-05T01:30:49.379Z,97836.33
2023-02-05T01:33:18.908Z,97832.45
2023-02-05T01:35:47.172Z,97834.55
2023-02-05T01:38:15.614Z,97834.45
2023-02-05T01:40:43.707Z,97841.00
2023-02-05T01:43:17.589Z,97840.58
2023-02-05T01:46:29.137Z,97845.42
2023-02-05T01:48:59.342Z,97849.55
2023-02-05T01:51:30.363Z,97851.29
2023-02-05T01:53:58.550Z,97849.41
2023-02-05T01:56:42.898Z,97845.66
2023-02-05T01:59:17.493Z,97847.03
2023-02-05T02:01:46.334Z,97848.64
2023-02-05T02:04:28.410Z,97850.53
2023-02-05T02:06:56.705Z,97850.59
2023-02-05T02:09:24.684Z,97855.61
2023-02-05T02:11:53.757Z,97855.64
2023-02-05T02:14:22.560Z,97859.77
2023-02-05T02:16:51.660Z,97860.48
2023-02-05T02:19:31.810Z,97856.40
2023-02-05T02:22:15.184Z,97857.80
2023-02-05T02:24:49.157Z,97864.10
2023-02-05T02:27:35.946Z,97864.80
2023-02-05T02:30:23.020Z,97870.62
2023-02-05T02:32:53.794Z,97870.63
2023-02-05T02:35:48.799Z,97868.29
2023-02-05T02:38:33.329Z,97876.98
2023-02-05T02:41:27.427Z,97874.79
2023-02-05T02:43:59.325Z,97878.89
2023-02-05T02:46:42.894Z,97876.69
2023-02-05T02:49:20.093Z,97876.20
2023-02-05T02:51:51.755Z,97879.79
2023-02-05T02:54:22.344Z,97879.79
2023-02-05T02:56:52.919Z,97876.60
2023-02-05T02:59:24.891Z,97884.11
2023-02-05T03:01:57.257Z,97881.73
2023-02-05T03:04:31.683Z,97885.67
2023-02-05T03:07:20.730Z,97887.93
2023-02-05T03:09:56.904Z,97886.95
2023-02-05T03:12:25.260Z,97888.48
2023-02-05T03:14:54.374Z,97893.09
2023-02-05T03:17:24.817Z,97894.98
2023-02-05T03:19:59.524Z,97898.91
2023-02-05T03:22:27.712Z,97906.23
2023-02-05T03:24:57.118Z,97908.96
2023-02-05T03:27:26.012Z,97907.77
2023-02-05T03:29:55.213Z,97905.36
2023-02-05T03:32:23.611Z,97910.93
2023-02-05T03:35:24.208Z,97918.23
2023-02-05T03:38:07.327Z,97923.18
2023-02-05T03:40:51.060Z,97928.30
2023-02-05T03:43:50.150Z,97932.05
2023-02-05T03:46:28.770Z,97932.22
2023-02-05T03:49:15.569Z,97931.04
2023-02-05T03:51:56.636Z,97930.36
2023-02-05T03:54:25.018Z,97927.34
2023-02-05T03:57:13.033Z,97933.98
2023-02-05T03:59:42.709Z,97936.35
2023-02-05T04:02:11.680Z,97937.19
2023-02-05T04:04:41.981Z,97935.98
2023-02-05T04:07:10.886Z,97941.11
2023-02-05T04:09:39.462Z,97939.78
2023-02-05T04:12:08.118Z,97940.14
2023-02-05T04:14:37.358Z,97940.33
2023-02-05T04:17:07.787Z,97940.66
2023-02-05T04:19:36.148Z,97949.54
2023-02-05T04:22:05.061Z,97951.23
2023-02-05T04:24:35.081Z,97951.40
2023-02-05T04:27:03.857Z,97957.84
2023-02-05T04:29:32.063Z,97954.77
2023-02-05T04:32:00.311Z,97962.61
2023-02-05T04:34:28.513Z,97963.48
2023-02-05T04:36:57.208Z,97965.52
2023-02-05T04:39:26.780Z,97966.71
2023-02-05T04:41:54.905Z,97970.16
2023-02-05T04:44:23.183Z,97977.84
2023-02-05T04:46:51.159Z,97980.73
2023-02-05T04:49:19.911Z,97981.92
2023-02-05T04:51:48.069Z,97981.75
2023-02-05T04:54:16.243Z,97983.45
2023-02-05T04:56:44.287Z,97984.66
2023-02-05T04:59:12.324Z,97992.84
2023-02-05T05:01:40.939Z,97991.48
2023-02-05T05:04:09.538Z,97993.03
2023-02-05T05:06:37.810Z,97995.30
2023-02-05T05:09:05.787Z,98000.79
2023-02-05T05:11:33.768Z,98002.16
2023-02-05T05:14:02.044Z,98001.48
2023-02-05T05:16:30.329Z,98001.14
2023-02-05T05:18:58.301Z,98003.71
2023-02-05T05:21:26.376Z,98004.73
2023-02-05T05:23:54.448Z,98005.82
2023-02-05T05:26:22.527Z,98009.94
2023-02-05T05:28:57.275Z,98010.67
2023-02-05T05:31:25.485Z,98009.39
2023-02-05T05:33:53.712Z,98013.52
2023-02-05T05:36:21.795Z,98018.48
2023-02-05T05:38:49.946Z,98024.12
2023-02-05T05:41:41.184Z,98037.75
2023-02-05T05:44:10.246Z,98041.16
2023-02-05T05:46:38.454Z,98045.94
2023-02-05T05:49:06.840Z,98051.73
2023-02-05T05:51:34.964Z,98057.05
2023-02-05T05:54:03.187Z,98068.30
2023-02-05T05:56:31.265Z,98071.07
2023-02-05T05:58:59.503Z,98077.05
2023-02-05T06:01:28.135Z,98079.44
2023-02-05T06:03:56.310Z,98081.34
2023-02-05T06:06:24.597Z,98085.79
2023-02-05T06:08:52.613Z,98090.41
2023-02-05T06:11:20.748Z,98093.31
2023-02-05T06:13:49.635Z,98094.48
2023-02-05T06:16:17.898Z,98101.48
2023-02-05T06:18:46.001Z,98098.27
2023-02-05T06:21:14.600Z,98102.04
2023-02-05T06:23:42.622Z,98101.02
2023-02-05T06:26:10.738Z,98106.30
2023-02-05T06:28:38.814Z,98106.80
2023-02-05T06:31:06.968Z,98108.16
2023-02-05T06:33:35.115Z,98110.04
2023-02-05T06:36:03.240Z,98113.96
2023-02-05T06:38:31.672Z,98119.58
2023-02-05T06:40:59.814Z,98122.30
2023-02-05T06:43:27.992Z,98126.05
2023-02-05T06:45:56.270Z,98122.77
2023-02-05T06:48:24.376Z,98127.18
2023-02-05T06:50:52.422Z,98128.86
2023-02-05T06:53:20.401Z,98129.71
2023-02-05T06:55:48.576Z,98132.28
2023-02-05T06:58:16.546Z,98130.23
2023-02-05T07:00:44.625Z,98140.80
2023-02-05T07:03:12.635Z,98137.95
2023-02-05T07:05:40.681Z,98139.51
2023-02-05T07:08:09.059Z,98138.48
2023-02-05T07:10:37.446Z,98139.36
2023-02-05T07:13:06.079Z,98140.05
2023-02-05T07:15:37.744Z,98143.48
2023-02-05T07:18:06.693Z,98148.63
2023-02-05T07:20:34.769Z,98152.57
2023-02-05T07:23:02.961Z,98155.48
2023-02-05T07:25:36.557Z,98157.55
2023-02-05T07:28:06.646Z,98163.70
2023-02-05T07:30:35.853Z,98168.80
2023-02-05T07:33:04.464Z,98167.76
2023-02-05T07:35:35.353Z,98173.85
2023-02-05T07:38:04.503Z,98173.10
2023-02-05T07:40:32.683Z,98168.63
2023-02-05T07:43:00.856Z,98170.80
2023-02-05T07:45:29.048Z,98173.67
2023-02-05T07:47:57.317Z,98174.67
2023-02-05T07:50:25.483Z,98169.87
2023-02-05T07:52:53.876Z,98170.05
2023-02-05T07:55:22.050Z,98177.54
2023-02-05T07:57:50.142Z,98181.97
2023-02-05T08:00:18.637Z,98182.48
2023-02-05T08:02:46.793Z,98190.32
2023-02-05T08:05:14.789Z,98184.17
2023-02-05T08:07:42.938Z,98184.85
2023-02-05T08:10:14.091Z,98183.31
2023-02-05T08:12:42.160Z,98188.25
2023-02-05T08:15:11.136Z,98188.27
2023-02-05T08:17:39.265Z,98184.85
2023-02-05T08:20:07.932Z,98179.91
2023-02-05T08:22:38.575Z,98182.64
2023-02-05T08:25:10.309Z,98178.73
2023-02-05T08:27:39.520Z,98182.98
2023-02-05T08:30:11.339Z,98188.27
2023-02-05T08:32:39.777Z,98192.70
2023-02-05T08:35:08.466Z,98196.45
2023-02-05T08:37:36.640Z,98193.06
2023-02-05T08:40:05.028Z,98181.84
2023-02-05T08:42:33.197Z,98191.23
2023-02-05T08:45:01.481Z,98197.90
2023-02-05T08:47:29.660Z,98200.49
2023-02-05T08:49:57.734Z,98201.04
2023-02-05T08:52:25.881Z,98210.44
2023-02-05T08:54:53.895Z,98216.95
2023-02-05T08:57:21.973Z,98215.45
2023-02-05T08:59:50.349Z,98212.23
2023-02-05T09:02:19.656Z,98216.50
2023-02-05T09:04:47.831Z,98218.90
2023-02-05T09:07:16.601Z,98218.55
2023-02-05T09:09:44.810Z,98220.77
2023-02-05T09:12:13.085Z,98216.02
2023-02-05T09:14:41.676Z,98213.61
2023-02-05T09:17:14.380Z,98211.38
2023-02-05T09:19:42.305Z,98210.87
2023-02-05T09:22:10.512Z,98201.14
2023-02-05T09:24:38.569Z,98197.90
2023-02-05T09:27:06.866Z,98200.45
2023-02-05T09:29:35.354Z,98200.09
2023-02-05T09:32:03.527Z,98204.61
2023-02-05T09:34:32.446Z,98203.81
2023-02-05T09:37:00.520Z,98202.88
2023-02-05T09:40:17.356Z,98201.94
2023-02-05T09:42:40.814Z,98201.86
2023-02-05T09:45:12.244Z,98200.77
2023-02-05T09:47:58.810Z,98196.98
2023-02-05T09:50:30.246Z,98194.38
2023-02-05T09:53:14.520Z,98193.88
2023-02-05T09:55:47.757Z,98187.94
2023-02-05T09:58:23.460Z,98192.58
2023-02-05T10:01:01.572Z,98187.82
2023-02-05T10:03:32.608Z,98193.14
2023-02-05T10:06:09.710Z,98195.23
2023-02-05T10:08:50.043Z,98190.19
2023-02-05T10:12:02.557Z,98190.56
2023-02-05T10:14:39.604Z,98188.90
2023-02-05T10:17:33.282Z,98187.23
2023-02-05T10:20:07.526Z,98183.57
2023-02-05T10:23:08.512Z,98182.23
2023-02-05T10:25:45.717Z,98171.69
2023-02-05T10:28:46.509Z,98173.27
2023-02-05T10:31:42.753Z,98177.55
2023-02-05T10:34:32.051Z,98177.27
2023-02-05T10:37:02.448Z,98181.87
2023-02-05T10:39:31.487Z,98185.96
2023-02-05T10:42:06.974Z,98185.30
2023-02-05T10:44:43.037Z,98185.83
2023-02-05T10:47:40.589Z,98182.61
2023-02-05T10:50:23.294Z,98179.04
2023-02-05T10:52:51.671Z,98179.04
2023-02-05T10:55:19.961Z,98182.78
2023-02-05T10:57:48.232Z,98178.34
2023-02-05T11:00:20.663Z,98176.45
2023-02-05T11:02:55.673Z,98177.63
2023-02-05T11:05:32.419Z,98182.05
2023-02-05T11:08:00.702Z,98179.33
2023-02-05T11:10:31.286Z,98175.41
2023-02-05T11:13:22.838Z,98171.48
2023-02-05T11:16:00.657Z,98178.64
2023-02-05T11:18:35.694Z,98174.55
2023-02-05T11:21:06.356Z,98172.14
2023-02-05T11:23:39.779Z,98173.64
2023-02-05T11:26:20.390Z,98174.13
2023-02-05T11:28:48.453Z,98170.02
2023-02-05T11:31:23.651Z,98169.50
2023-02-05T11:34:09.269Z,98169.32
2023-02-05T11:36:49.949Z,98158.90
2023-02-05T11:39:39.800Z,98155.63
2023-02-05T11:42:15.756Z,98156.13
2023-02-05T11:44:50.473Z,98153.56
2023-02-05T11:47:31.962Z,98155.74
2023-02-05T11:50:01.069Z,98151.69
2023-02-05T11:52:33.083Z,98146.76
2023-02-05T11:55:01.919Z,98142.29
2023-02-05T11:57:31.958Z,98138.67
2023-02-05T12:00:01.483Z,98134.95
2023-02-05T12:02:35.962Z,98138.19
2023-02-05T12:05:24.245Z,98130.88
2023-02-05T12:08:01.707Z,98122.73
2023-02-05T12:10:39.503Z,98116.94
2023-02-05T12:13:24.467Z,98116.27
2023-02-05T12:16:08.545Z,98115.62
2023-02-05T12:18:52.025Z,98119.66
2023-02-05T12:21:43.230Z,98122.40
2023-02-05T12:24:21.651Z,98121.56
2023-02-05T12:26:57.499Z,98122.92
2023-02-05T12:29:39.094Z,98121.05
2023-02-05T12:32:29.931Z,98126.31
2023-02-05T12:35:13.406Z,98126.14
2023-02-05T12:38:07.994Z,98123.93
2023-02-05T12:40:57.758Z,98127.52
2023-02-05T12:43:45.187Z,98129.55
2023-02-05T12:46:44.566Z,98126.85
2023-02-05T12:49:23.894Z,98117.87
2023-02-05T12:51:55.050Z,98119.77
2023-02-05T12:54:34.783Z,98122.66
2023-02-05T12:57:08.699Z,98123.85
2023-02-05T12:59:50.945Z,98118.05
2023-02-05T13:02:37.283Z,98120.95
2023-02-05T13:05:14.684Z,98125.57
2023-02-05T13:07:48.896Z,98123.05
2023-02-05T13:10:53.505Z,98127.17
2023-02-05T13:13:28.248Z,98129.40
2023-02-05T13:16:05.020Z,98132.82
2023-02-05T13:18:38.507Z,98136.39
2023-02-05T13:21:30.023Z,98140.82
2023-02-05T13:24:31.309Z,98138.95
2023-02-05T13:27:18.480Z,98138.59
2023-02-05T13:29:51.712Z,98144.51
2023-02-05T13:32:23.748Z,98143.30
2023-02-05T13:34:54.975Z,98144.81
2023-02-05T13:37:58.466Z,98143.61
2023-02-05T13:40:55.858Z,98146.80
2023-02-05T13:43:58.624Z,98148.65
2023-02-05T13:46:51.716Z,98148.45
2023-02-05T13:49:47.412Z,98146.20
2023-02-05T13:52:54.081Z,98145.81
2023-02-05T13:55:25.017Z,98145.76
2023-02-05T13:58:11.416Z,98145.90
2023-02-05T14:00:42.764Z,98150.83
2023-02-05T14:03:27.170Z,98149.58
2023-02-05T14:05:57.123Z,98148.68
2023-02-05T14:08:29.697Z,98147.61
2023-02-05T14:11:01.060Z,98152.54
2023-02-05T14:13:34.669Z,98153.89
2023-02-05T14:16:24.537Z,98154.57
2023-02-05T14:19:01.643Z,98158.80
2023-02-05T14:21:29.671Z,98163.70
2023-02-05T14:24:01.758Z,98160.77
2023-02-05T14:26:48.280Z,98161.10
2023-02-05T14:29:43.135Z,98161.79
2023-02-05T14:32:27.403Z,98166.58
2023-02-05T14:35:05.266Z,98167.61
2023-02-05T14:38:03.362Z,98165.38
2023-02-05T14:40:38.524Z,98161.64
2023-02-05T14:43:26.321Z,98162.30
2023-02-05T14:45:55.231Z,98168.27
2023-02-05T14:48:30.970Z,98169.61
2023-02-05T14:51:21.759Z,98173.84
2023-02-05T14:54:04.363Z,98173.63
2023-02-05T14:56:54.331Z,98171.91
2023-02-05T14:59:29.907Z,98173.79
2023-02-05T15:01:59.806Z,98177.15
2023-02-05T15:04:27.802Z,98181.90
2023-02-05T15:06:59.633Z,98185.65
2023-02-05T15:09:54.620Z,98186.34
2023-02-05T15:12:28.561Z,98186.85
2023-02-05T15:14:58.661Z,98190.42
2023-02-05T15:17:30.051Z,98190.60
2023-02-05T15:20:04.552Z,98191.09
2023-02-05T15:22:46.120Z,98193.48
2023-02-05T15:25:33.983Z,98195.88
2023-02-05T15:28:08.473Z,98194.67
2023-02-05T15:30:51.502Z,98193.30
2023-02-05T15:33:34.714Z,98195.18
2023-02-05T15:36:12.054Z,98198.59
2023-02-05T15:38:52.253Z,98203.20
2023-02-05T15:41:22.573Z,98200.32
2023-02-05T15:44:02.134Z,98202.02
2023-02-05T15:46:33.279Z,98208.54
2023-02-05T15:49:01.733Z,98204.79
2023-02-05T15:51:34.134Z,98204.31
2023-02-05T15:54:04.326Z,98203.48
2023-02-05T15:56:33.040Z,98204.16
2023-02-05T15:59:09.991Z,98204.27
2023-02-05T16:01:46.253Z,98205.58
2023-02-05T16:04:20.279Z,98211.48
2023-02-05T16:06:49.403Z,98215.20
2023-02-05T16:09:19.599Z,98217.23
2023-02-05T16:11:48.724Z,98223.04
2023-02-05T16:14:19.600Z,98229.18
2023-02-05T16:16:53.867Z,98231.70
2023-02-05T16:19:26.149Z,98235.57
2023-02-05T16:22:03.329Z,98240.27
2023-02-05T16:24:39.410Z,98247.31
2023-02-05T16:27:17.288Z,98249.56
2023-02-05T16:29:51.020Z,98250.64
2023-02-05T16:32:31.548Z,98256.30
2023-02-05T16:35:02.437Z,98259.58
2023-02-05T16:37:32.106Z,98264.20
2023-02-05T16:40:06.872Z,98260.00
2023-02-05T16:42:43.502Z,98263.97
2023-02-05T16:45:20.475Z,98268.63
2023-02-05T16:48:22.632Z,98268.67
2023-02-05T16:50:51.758Z,98270.43
2023-02-05T16:53:26.792Z,98271.34
2023-02-05T16:56:22.067Z,98267.42
2023-02-05T16:58:53.633Z,98259.95
2023-02-05T17:01:24.185Z,98259.66
2023-02-05T17:03:52.231Z,98266.48
2023-02-05T17:06:21.330Z,98270.06
2023-02-05T17:08:55.269Z,98275.02
2023-02-05T17:11:41.942Z,98272.82
2023-02-05T17:14:31.221Z,98275.05
2023-02-05T17:17:15.595Z,98278.64
2023-02-05T17:19:44.234Z,98282.36
2023-02-05T17:22:15.050Z,98287.48
2023-02-05T17:24:49.289Z,98285.11
2023-02-05T17:27:32.951Z,98286.30
2023-02-05T17:30:01.019Z,98277.96
2023-02-05T17:32:30.093Z,98278.99
2023-02-05T17:35:00.043Z,98283.44
2023-02-05T17:37:28.207Z,98285.17
2023-02-05T17:39:57.918Z,98288.27
2023-02-05T17:42:26.815Z,98285.54
2023-02-05T17:44:55.014Z,98288.45
2023-02-05T17:47:23.372Z,98288.98
2023-02-05T17:49:51.367Z,98287.46
2023-02-05T17:52:19.761Z,98284.94
2023-02-05T17:54:47.807Z,98279.14
2023-02-05T17:57:21.367Z,98280.67
2023-02-05T17:59:50.314Z,98281.88
2023-02-05T18:02:18.295Z,98285.63
2023-02-05T18:04:46.980Z,98286.65
2023-02-05T18:07:37.278Z,98290.04
2023-02-05T18:10:07.380Z,98291.89
2023-02-05T18:12:35.373Z,98290.52
2023-02-05T18:15:04.120Z,98293.06
2023-02-05T18:17:32.179Z,98290.50
2023-02-05T18:20:00.289Z,98290.67
2023-02-05T18:22:28.671Z,98291.68
2023-02-05T18:24:56.763Z,98295.27
2023-02-05T18:27:26.053Z,98295.41
2023-02-05T18:29:54.389Z,98293.02
2023-02-05T18:32:22.712Z,98294.86
2023-02-05T18:34:51.347Z,98298.80
2023-02-05T18:37:20.001Z,98298.15
2023-02-05T18:39:48.375Z,98304.61
2023-02-05T18:42:16.969Z,98308.71
2023-02-05T18:44:45.145Z,98311.27
2023-02-05T18:47:14.038Z,98307.69
2023-02-05T18:49:42.140Z,98303.43
2023-02-05T18:52:11.926Z,98301.04
2023-02-05T18:54:40.412Z,98302.91
2023-02-05T18:57:08.565Z,98306.31
2023-02-05T18:59:38.100Z,98313.98
2023-02-05T19:02:09.582Z,98311.44
2023-02-05T19:04:37.736Z,98310.23
2023-02-05T19:07:05.804Z,98314.50
2023-02-05T19:09:34.497Z,98320.29
2023-02-05T19:12:02.979Z,98322.69
2023-02-05T19:14:31.077Z,98323.88
2023-02-05T19:16:59.138Z,98329.84
2023-02-05T19:19:27.205Z,98337.16
2023-02-05T19:22:01.933Z,98341.42
2023-02-05T19:24:30.025Z,98339.38
2023-02-05T19:26:59.322Z,98341.24
2023-02-05T19:29:28.013Z,98343.13
2023-02-05T19:31:57.612Z,98345.85
2023-02-05T19:34:27.794Z,98350.45
2023-02-05T19:36:55.893Z,98349.95
2023-02-05T19:39:24.099Z,98347.59
2023-02-05T19:41:53.025Z,98348.29
2023-02-05T19:44:21.182Z,98349.33
2023-02-05T19:46:50.473Z,98349.84
2023-02-05T19:49:20.506Z,98350.52
2023-02-05T19:51:51.355Z,98350.20
2023-02-05T19:54:21.597Z,98355.36
2023-02-05T19:56:50.595Z,98354.69
2023-02-05T19:59:19.470Z,98360.02
2023-02-05T20:01:47.905Z,98359.69
2023-02-05T20:04:19.099Z,98362.93
2023-02-05T20:06:48.209Z,98368.21
2023-02-05T20:09:17.432Z,98371.63
2023-02-05T20:11:52.645Z,98378.09
2023-02-05T20:14:22.043Z,98383.89
2023-02-05T20:16:50.124Z,98385.41
2023-02-05T20:19:18.808Z,98386.77
2023-02-05T20:21:47.395Z,98388.98
2023-02-05T20:24:16.633Z,98392.73
2023-02-05T20:26:48.457Z,98394.60
2023-02-05T20:29:35.844Z,98402.61
2023-02-05T20:32:04.854Z,98397.84
2023-02-05T20:34:35.978Z,98395.11
2023-02-05T20:37:06.819Z,98395.12
2023-02-05T20:39:35.522Z,98399.55
2023-02-05T20:42:03.773Z,98395.46
2023-02-05T20:44:36.447Z,98396.16
2023-02-05T20:47:07.278Z,98397.51
2023-02-05T20:49:36.039Z,98390.94
2023-02-05T20:52:04.794Z,98403.67
2023-02-05T20:54:33.003Z,98406.93
2023-02-05T20:57:01.394Z,98408.98
2023-02-05T20:59:34.495Z,98411.58
2023-02-05T21:02:03.570Z,98415.34
2023-02-05T21:04:32.076Z,98416.38
2023-02-05T21:07:01.009Z,98415.56
2023-02-05T21:09:29.255Z,98421.38
2023-02-05T21:11:57.625Z,98423.63
2023-02-05T21:14:26.006Z,98422.95
2023-02-05T21:16:54.310Z,98425.70
2023-02-05T21:19:23.295Z,98418.23
2023-02-05T21:21:52.286Z,98418.58
2023-02-05T21:24:21.490Z,98422.66
2023-02-05T21:26:50.221Z,98419.42
2023-02-05T21:29:20.726Z,98426.92
2023-02-05T21:31:53.084Z,98427.98
2023-02-05T21:34:25.065Z,98432.25
2023-02-05T21:36:55.125Z,98430.73
2023-02-05T21:39:23.458Z,98439.44
2023-02-05T21:41:51.730Z,98440.82
2023-02-05T21:44:20.031Z,98444.23
2023-02-05T21:46:48.187Z,98444.59
2023-02-05T21:49:16.376Z,98450.05
2023-02-05T21:51:44.516Z,98458.56
2023-02-05T21:54:12.625Z,98451.25
2023-02-05T21:56:42.967Z,98451.42
2023-02-05T21:59:12.882Z,98454.52
2023-02-05T22:01:42.181Z,98446.54
2023-02-05T22:04:17.020Z,98450.15
2023-02-05T22:06:45.502Z,98441.82
2023-02-05T22:09:15.385Z,98444.23
2023-02-05T22:11:44.735Z,98445.44
2023-02-05T22:14:12.909Z,98451.92
2023-02-05T22:16:41.060Z,98454.50
2023-02-05T22:19:09.248Z,98454.85
2023-02-05T22:21:40.956Z,98454.20
2023-02-05T22:24:13.919Z,98454.38
2023-02-05T22:26:43.719Z,98461.02
2023-02-05T22:29:15.279Z,98469.35
2023-02-05T22:31:45.109Z,98473.10
2023-02-05T22:34:13.377Z,98476.50
2023-02-05T22:36:41.466Z,98478.55
2023-02-05T22:39:09.822Z,98479.39
2023-02-05T22:41:40.542Z,98482.80
2023-02-05T22:44:10.882Z,98485.84
2023-02-05T22:46:42.136Z,98486.33
2023-02-05T22:49:12.063Z,98493.12
2023-02-05T22:51:41.778Z,98495.17
2023-02-05T22:54:12.198Z,98494.48
2023-02-05T22:56:40.389Z,98491.59
2023-02-05T22:59:08.973Z,98485.94
2023-02-05T23:01:39.204Z,98486.45
2023-02-05T23:04:08.930Z,98491.86
2023-02-05T23:06:40.801Z,98489.48
2023-02-05T23:09:15.033Z,98491.52
2023-02-05T23:11:44.291Z,98492.70
2023-02-05T23:14:15.179Z,98493.20
2023-02-05T23:16:45.633Z,98491.52
2023-02-05T23:19:18.702Z,98498.83
2023-02-05T23:21:48.121Z,98500.17
2023-02-05T23:24:17.460Z,98503.92
2023-02-05T23:26:48.836Z,98506.64
2023-02-05T23:29:17.922Z,98505.80
2023-02-05T23:31:46.813Z,98502.05
2023-02-05T23:34:14.873Z,98503.94
2023-02-05T23:36:42.925Z,98498.83
2023-02-05T23:39:11.031Z,98502.40
2023-02-05T23:41:40.211Z,98503.59
2023-02-05T23:44:15.453Z,98507.51
2023-02-05T23:46:45.530Z,98508.02
2023-02-05T23:49:14.797Z,98505.64
2023-02-05T23:51:43.354Z,98502.91
2023-02-05T23:54:12.311Z,98498.32
2023-02-05T23:56:40.873Z,98504.27
2023-02-05T23:59:11.266Z,98515.16
